Time,TemperatureF,DewpointF,PressureIn,WindDirection,WindDirectionDegrees,WindSpeedMPH,WindSpeedGustMPH,Humidity,HourlyPrecipIn,Conditions,Clouds,dailyrainin,SoftwareType,DateUTC
2013-10-08 00:01:00,72.0,60.5,30.08,East,94,0.0,0.0,67,0.00,,---,0.00,VWS V14.01,2013-10-08 05:01:00,
2013-10-08 00:06:00,71.9,60.8,30.08,East,96,0.0,0.0,68,0.00,,---,0.00,VWS V14.01,2013-10-08 05:06:00,
2013-10-08 00:11:00,71.9,60.4,30.08,ESE,108,0.0,0.0,67,0.00,,---,0.00,VWS V14.01,2013-10-08 05:11:00,
2013-10-08 00:16:00,72.0,60.0,30.08,ESE,112,0.0,0.0,66,0.00,,---,0.00,VWS V14.01,2013-10-08 05:16:00,
2013-10-08 00:21:00,71.7,59.8,30.07,ESE,112,0.0,0.0,66,0.00,,---,0.00,VWS V14.01,2013-10-08 05:21:00,
2013-10-08 00:26:00,70.9,59.4,30.07,NE,40,0.0,0.0,67,0.00,,---,0.00,VWS V14.01,2013-10-08 05:26:00,
2013-10-08 00:31:00,70.8,59.3,30.07,NE,41,0.0,0.0,67,0.00,,---,0.00,VWS V14.01,2013-10-08 05:31:00,
2013-10-08 00:36:00,71.3,59.4,30.07,NE,41,0.0,0.0,66,0.00,,---,0.00,VWS V14.01,2013-10-08 05:36:00,
2013-10-08 00:41:00,71.1,59.6,30.07,NE,41,0.0,0.0,67,0.00,,---,0.00,VWS V14.01,2013-10-08 05:41:00,
2013-10-08 00:46:00,70.9,59.4,30.07,NE,41,0.0,0.0,67,0.00,,---,0.00,VWS V14.01,2013-10-08 05:46:00,
2013-10-08 00:51:00,70.6,59.5,30.07,NE,41,0.0,0.0,68,0.00,,---,0.00,VWS V14.01,2013-10-08 05:51:00,
2013-10-08 00:56:00,70.4,59.3,30.07,NE,41,0.0,0.0,68,0.00,,---,0.00,VWS V14.01,2013-10-08 05:56:00,
2013-10-08 01:01:00,69.7,59.1,30.07,NE,41,0.0,0.0,69,0.00,,---,0.00,VWS V14.01,2013-10-08 06:01:00,
2013-10-08 01:06:00,69.4,59.6,30.07,NE,41,0.0,0.0,71,0.00,,---,0.00,VWS V14.01,2013-10-08 06:06:00,
2013-10-08 01:11:00,69.6,60.2,30.07,NE,41,0.0,0.0,72,0.00,,---,0.00,VWS V14.01,2013-10-08 06:11:00,
2013-10-08 01:16:00,69.9,60.1,30.07,NE,41,0.0,0.0,71,0.00,,---,0.00,VWS V14.01,2013-10-08 06:16:00,
2013-10-08 01:21:00,69.9,59.7,30.07,NE,41,0.0,0.0,70,0.00,,---,0.00,VWS V14.01,2013-10-08 06:21:00,
2013-10-08 01:26:00,69.8,60.0,30.06,NE,41,0.0,0.0,71,0.00,,---,0.00,VWS V14.01,2013-10-08 06:26:00,
2013-10-08 01:31:00,69.3,59.5,30.07,NE,41,0.0,0.0,71,0.00,,---,0.00,VWS V14.01,2013-10-08 06:31:00,
2013-10-08 01:36:00,69.0,60.0,30.07,NE,41,0.0,0.0,73,0.00,,---,0.00,VWS V14.01,2013-10-08 06:36:00,
2013-10-08 01:41:00,69.3,60.3,30.07,NE,41,0.0,0.0,73,0.00,,---,0.00,VWS V14.01,2013-10-08 06:41:00,
2013-10-08 01:46:00,69.3,59.9,30.07,NE,41,0.0,0.0,72,0.00,,---,0.00,VWS V14.01,2013-10-08 06:46:00,
2013-10-08 01:51:00,69.8,59.6,30.07,NE,41,0.0,0.0,70,0.00,,---,0.00,VWS V14.01,2013-10-08 06:51:00,
2013-10-08 01:56:00,70.0,58.5,30.07,NE,41,0.0,0.0,67,0.00,,---,0.00,VWS V14.01,2013-10-08 06:56:00,
2013-10-08 02:01:00,70.3,57.1,30.07,NE,41,0.0,0.0,63,0.00,,---,0.00,VWS V14.01,2013-10-08 07:01:00,
2013-10-08 02:06:00,70.9,56.3,30.07,NE,41,0.0,0.0,60,0.00,,---,0.00,VWS V14.01,2013-10-08 07:06:00,
2013-10-08 02:11:00,70.8,56.2,30.07,NE,41,0.0,0.0,60,0.00,,---,0.00,VWS V14.01,2013-10-08 07:11:00,
2013-10-08 02:16:00,70.4,55.4,30.07,NE,41,0.0,0.0,59,0.00,,---,0.00,VWS V14.01,2013-10-08 07:16:00,
2013-10-08 02:21:00,70.0,56.0,30.06,NE,41,0.0,0.0,61,0.00,,---,0.00,VWS V14.01,2013-10-08 07:21:00,
2013-10-08 02:26:00,69.4,55.4,30.07,NE,41,0.0,0.0,61,0.00,,---,0.00,VWS V14.01,2013-10-08 07:26:00,
2013-10-08 02:31:00,69.4,54.5,30.06,NE,40,0.0,0.0,59,0.00,,---,0.00,VWS V14.01,2013-10-08 07:31:00,
2013-10-08 02:36:00,69.3,54.4,30.06,NE,41,0.0,0.0,59,0.00,,---,0.00,VWS V14.01,2013-10-08 07:36:00,
2013-10-08 02:41:00,69.8,54.4,30.06,NE,41,0.0,0.0,58,0.00,,---,0.00,VWS V14.01,2013-10-08 07:41:00,
2013-10-08 02:46:00,69.6,54.2,30.06,NE,41,0.0,0.0,58,0.00,,---,0.00,VWS V14.01,2013-10-08 07:46:00,
2013-10-08 02:51:00,69.2,54.7,30.06,NE,40,0.0,0.0,60,0.00,,---,0.00,VWS V14.01,2013-10-08 07:51:00,
2013-10-08 02:56:00,69.1,54.7,30.06,NE,40,0.0,0.0,60,0.00,,---,0.00,VWS V14.01,2013-10-08 07:56:00,
2013-10-08 03:01:00,69.0,55.5,30.05,NE,40,0.0,0.0,62,0.00,,---,0.00,VWS V14.01,2013-10-08 08:01:00,
2013-10-08 03:06:00,68.9,54.0,30.06,NE,41,0.0,0.0,59,0.00,,---,0.00,VWS V14.01,2013-10-08 08:06:00,
2013-10-08 03:11:00,69.1,54.2,30.06,NE,41,0.0,0.0,59,0.00,,---,0.00,VWS V14.01,2013-10-08 08:11:00,
2013-10-08 03:16:00,68.9,53.5,30.06,NE,40,0.0,0.0,58,0.00,,---,0.00,VWS V14.01,2013-10-08 08:16:00,
2013-10-08 03:21:00,69.6,53.7,30.05,NE,41,0.0,0.0,57,0.00,,---,0.00,VWS V14.01,2013-10-08 08:21:00,
2013-10-08 03:26:00,69.6,53.7,30.05,NE,40,0.0,0.0,57,0.00,,---,0.00,VWS V14.01,2013-10-08 08:26:00,
2013-10-08 03:31:00,69.5,54.1,30.05,NE,40,0.0,0.0,58,0.00,,---,0.00,VWS V14.01,2013-10-08 08:31:00,
2013-10-08 03:36:00,69.3,54.4,30.05,NE,40,0.0,0.0,59,0.00,,---,0.00,VWS V14.01,2013-10-08 08:36:00,
2013-10-08 03:41:00,69.3,53.9,30.05,NE,41,0.0,0.0,58,0.00,,---,0.00,VWS V14.01,2013-10-08 08:41:00,
2013-10-08 03:46:00,69.1,53.7,30.05,NE,40,0.0,0.0,58,0.00,,---,0.00,VWS V14.01,2013-10-08 08:46:00,
2013-10-08 03:51:00,68.9,53.5,30.05,NE,40,0.0,0.0,58,0.00,,---,0.00,VWS V14.01,2013-10-08 08:51:00,
2013-10-08 03:56:00,68.5,53.2,30.05,NE,40,0.0,0.0,58,0.00,,---,0.00,VWS V14.01,2013-10-08 08:56:00,
2013-10-08 04:01:00,68.2,53.3,30.05,NE,40,0.0,0.0,59,0.00,,---,0.00,VWS V14.01,2013-10-08 09:01:00,
2013-10-08 04:06:00,67.7,53.3,30.05,NNE,32,0.0,0.0,60,0.00,,---,0.00,VWS V14.01,2013-10-08 09:06:00,
2013-10-08 04:11:00,67.1,53.7,30.05,North,359,0.0,0.0,62,0.00,,---,0.00,VWS V14.01,2013-10-08 09:11:00,
2013-10-08 04:16:00,65.7,54.0,30.05,NNW,343,0.0,0.0,66,0.00,,---,0.00,VWS V14.01,2013-10-08 09:16:00,
2013-10-08 04:21:00,64.3,53.9,30.05,WNW,297,0.0,0.0,69,0.00,,---,0.00,VWS V14.01,2013-10-08 09:21:00,
2013-10-08 04:26:00,63.2,54.0,30.05,WNW,297,0.0,0.0,72,0.00,,---,0.00,VWS V14.01,2013-10-08 09:26:00,
2013-10-08 04:31:00,63.2,55.2,30.05,WNW,299,0.0,1.0,75,0.00,,---,0.00,VWS V14.01,2013-10-08 09:31:00,
2013-10-08 04:36:00,63.2,55.9,30.05,WNW,288,0.0,1.0,77,0.00,,---,0.00,VWS V14.01,2013-10-08 09:36:00,
2013-10-08 04:41:00,63.2,56.9,30.05,WNW,297,0.0,1.0,80,0.00,,---,0.00,VWS V14.01,2013-10-08 09:41:00,
2013-10-08 04:46:00,62.9,58.3,30.05,WNW,295,0.0,1.0,85,0.00,,---,0.00,VWS V14.01,2013-10-08 09:46:00,
2013-10-08 04:51:00,62.6,58.4,30.05,WNW,295,0.0,1.0,86,0.00,,---,0.00,VWS V14.01,2013-10-08 09:51:00,
2013-10-08 04:56:00,62.6,58.7,30.05,WNW,301,0.0,1.0,87,0.00,,---,0.00,VWS V14.01,2013-10-08 09:56:00,
2013-10-08 05:01:00,62.4,58.2,30.05,WNW,301,0.0,0.0,86,0.00,,---,0.00,VWS V14.01,2013-10-08 10:01:00,
2013-10-08 05:06:00,62.4,58.2,30.05,WNW,301,0.0,0.0,86,0.00,,---,0.00,VWS V14.01,2013-10-08 10:06:00,
2013-10-08 05:11:00,62.4,58.2,30.05,WNW,301,0.0,0.0,86,0.00,,---,0.00,VWS V14.01,2013-10-08 10:11:00,
2013-10-08 05:16:00,62.4,58.2,30.05,WNW,301,0.0,0.0,86,0.00,,---,0.00,VWS V14.01,2013-10-08 10:16:00,
2013-10-08 05:21:00,62.4,58.2,30.05,WNW,294,0.0,0.0,86,0.00,,---,0.00,VWS V14.01,2013-10-08 10:21:00,
2013-10-08 05:26:00,62.3,58.4,30.05,WNW,290,0.0,1.0,87,0.00,,---,0.00,VWS V14.01,2013-10-08 10:26:00,
2013-10-08 05:31:00,62.1,58.2,30.06,WNW,283,0.0,1.0,87,0.00,,---,0.00,VWS V14.01,2013-10-08 10:31:00,
2013-10-08 05:36:00,62.1,58.8,30.06,WNW,282,0.0,1.0,89,0.00,,---,0.00,VWS V14.01,2013-10-08 10:36:00,
2013-10-08 05:41:00,62.2,58.9,30.06,West,280,0.0,1.0,89,0.00,,---,0.00,VWS V14.01,2013-10-08 10:41:00,
2013-10-08 05:46:00,62.4,59.1,30.06,WNW,297,0.0,1.0,89,0.00,,---,0.00,VWS V14.01,2013-10-08 10:46:00,
2013-10-08 05:51:00,62.2,58.9,30.06,WNW,297,1.0,1.0,89,0.00,,---,0.00,VWS V14.01,2013-10-08 10:51:00,
2013-10-08 05:56:00,62.1,58.8,30.06,WNW,300,1.0,1.0,89,0.00,,---,0.00,VWS V14.01,2013-10-08 10:56:00,
2013-10-08 06:01:00,61.9,58.9,30.06,WNW,301,0.0,0.0,90,0.00,,---,0.00,VWS V14.01,2013-10-08 11:01:00,
2013-10-08 06:06:00,61.7,58.7,30.07,WNW,293,0.0,2.0,90,0.00,,---,0.00,VWS V14.01,2013-10-08 11:06:00,
2013-10-08 06:11:00,61.7,59.0,30.07,WNW,297,2.0,2.0,91,0.00,,---,0.00,VWS V14.01,2013-10-08 11:11:00,
2013-10-08 06:16:00,61.6,59.0,30.07,WNW,297,1.0,3.0,91,0.00,,---,0.00,VWS V14.01,2013-10-08 11:16:00,
2013-10-08 06:21:00,61.1,58.2,30.07,NW,309,2.0,4.0,90,0.00,,---,0.00,VWS V14.01,2013-10-08 11:21:00,
2013-10-08 06:26:00,60.4,57.5,30.07,NW,311,0.0,5.0,90,0.00,,---,0.00,VWS V14.01,2013-10-08 11:26:00,
2013-10-08 06:31:00,59.8,56.9,30.07,WNW,293,0.0,5.0,90,0.00,,---,0.00,VWS V14.01,2013-10-08 11:31:00,
2013-10-08 06:36:00,59.4,56.5,30.07,NW,304,0.0,5.0,90,0.00,,---,0.00,VWS V14.01,2013-10-08 11:36:00,
2013-10-08 06:41:00,59.0,56.4,30.07,WNW,295,0.0,5.0,91,0.00,,---,0.00,VWS V14.01,2013-10-08 11:41:00,
2013-10-08 06:46:00,58.7,56.1,30.07,NW,304,0.0,5.0,91,0.00,,---,0.00,VWS V14.01,2013-10-08 11:46:00,
2013-10-08 06:51:00,58.6,56.0,30.07,NW,312,0.0,5.0,91,0.00,,---,0.00,VWS V14.01,2013-10-08 11:51:00,
2013-10-08 06:56:00,58.6,56.3,30.07,WNW,293,0.0,5.0,92,0.00,,---,0.00,VWS V14.01,2013-10-08 11:56:00,
2013-10-08 07:01:00,58.7,56.1,30.07,WNW,302,1.0,2.0,91,0.00,,---,0.00,VWS V14.01,2013-10-08 12:01:00,
2013-10-08 07:06:00,58.8,56.2,30.08,NW,312,1.0,4.0,91,0.00,,---,0.00,VWS V14.01,2013-10-08 12:06:00,
2013-10-08 07:11:00,58.8,55.9,30.08,WNW,301,0.0,5.0,90,0.00,,---,0.00,VWS V14.01,2013-10-08 12:11:00,
2013-10-08 07:16:00,58.8,55.9,30.07,NW,312,1.0,5.0,90,0.00,,---,0.00,VWS V14.01,2013-10-08 12:16:00,
2013-10-08 07:20:00,59.1,56.2,30.07,NW,311,1.0,5.0,90,0.00,,---,0.00,VWS V14.01,2013-10-08 12:20:00,
2013-10-08 07:25:00,59.3,56.4,30.07,NW,305,0.0,5.0,90,0.00,,---,0.00,VWS V14.01,2013-10-08 12:25:00,
2013-10-08 07:30:00,59.6,56.7,30.07,WNW,302,2.0,5.0,90,0.00,,---,0.00,VWS V14.01,2013-10-08 12:30:00,
2013-10-08 07:36:00,59.7,56.8,30.08,NW,310,3.0,5.0,90,0.00,,---,0.00,VWS V14.01,2013-10-08 12:36:00,
2013-10-08 07:41:00,60.0,57.1,30.08,NW,325,1.0,5.0,90,0.00,,---,0.00,VWS V14.01,2013-10-08 12:41:00,
2013-10-08 07:46:00,60.4,57.5,30.08,NW,305,1.0,5.0,90,0.00,,---,0.00,VWS V14.01,2013-10-08 12:46:00,
2013-10-08 07:51:00,60.9,58.0,30.08,NNW,340,1.0,5.0,90,0.00,,---,0.00,VWS V14.01,2013-10-08 12:51:00,
2013-10-08 07:56:00,61.5,58.5,30.08,NW,308,3.0,5.0,90,0.00,,---,0.00,VWS V14.01,2013-10-08 12:56:00,
2013-10-08 08:01:00,61.9,58.9,30.08,NW,322,2.0,3.0,90,0.00,,---,0.00,VWS V14.01,2013-10-08 13:01:00,
2013-10-08 08:06:00,62.3,59.3,30.08,WNW,302,1.0,4.0,90,0.00,,---,0.00,VWS V14.01,2013-10-08 13:06:00,
2013-10-08 08:11:00,62.8,59.8,30.08,North,1,0.0,4.0,90,0.00,,---,0.00,VWS V14.01,2013-10-08 13:11:00,
2013-10-08 08:16:00,63.3,60.0,30.08,NNW,335,2.0,4.0,89,0.00,,---,0.00,VWS V14.01,2013-10-08 13:16:00,
2013-10-08 08:21:00,64.0,61.0,30.08,NNW,337,1.0,4.0,90,0.00,,---,0.00,VWS V14.01,2013-10-08 13:21:00,
2013-10-08 08:26:00,64.8,61.5,30.09,NNW,337,0.0,4.0,89,0.00,,---,0.00,VWS V14.01,2013-10-08 13:26:00,
2013-10-08 08:31:00,65.4,61.8,30.09,North,8,1.0,5.0,88,0.00,,---,0.00,VWS V14.01,2013-10-08 13:31:00,
2013-10-08 08:36:00,66.2,61.9,30.09,North,353,0.0,5.0,86,0.00,,---,0.00,VWS V14.01,2013-10-08 13:36:00,
2013-10-08 08:41:00,66.8,61.8,30.09,North,1,0.0,6.0,84,0.00,,---,0.00,VWS V14.01,2013-10-08 13:41:00,
2013-10-08 08:46:00,67.5,61.8,30.09,NNE,27,0.0,6.0,82,0.00,,---,0.00,VWS V14.01,2013-10-08 13:46:00,
2013-10-08 08:51:00,68.1,62.4,30.09,NNE,25,1.0,6.0,82,0.00,,---,0.00,VWS V14.01,2013-10-08 13:51:00,
2013-10-08 08:56:00,68.3,62.2,30.09,NNE,29,6.0,6.0,81,0.00,,---,0.00,VWS V14.01,2013-10-08 13:56:00,
2013-10-08 09:01:00,68.4,61.3,30.09,North,1,4.0,4.0,78,0.00,,---,0.00,VWS V14.01,2013-10-08 14:01:00,
2013-10-08 09:06:00,68.8,62.0,30.09,North,1,2.0,7.0,79,0.00,,---,0.00,VWS V14.01,2013-10-08 14:06:00,
2013-10-08 09:11:00,69.3,61.8,30.10,NE,39,2.0,7.0,77,0.00,,---,0.00,VWS V14.01,2013-10-08 14:11:00,
2013-10-08 09:16:00,69.7,61.4,30.10,NNE,23,0.0,7.0,75,0.00,,---,0.00,VWS V14.01,2013-10-08 14:16:00,
2013-10-08 09:21:00,70.1,61.0,30.10,North,5,1.0,7.0,73,0.00,,---,0.00,VWS V14.01,2013-10-08 14:21:00,
2013-10-08 09:26:00,70.4,61.7,30.10,NNE,12,2.0,7.0,74,0.00,,---,0.00,VWS V14.01,2013-10-08 14:26:00,
2013-10-08 09:31:00,70.3,59.2,30.10,NNE,22,3.0,7.0,68,0.00,,---,0.00,VWS V14.01,2013-10-08 14:31:00,
2013-10-08 09:36:00,70.6,60.0,30.10,NE,35,3.0,7.0,69,0.00,,---,0.00,VWS V14.01,2013-10-08 14:36:00,
2013-10-08 09:41:00,70.8,59.7,30.10,NE,35,5.0,7.0,68,0.00,,---,0.00,VWS V14.01,2013-10-08 14:41:00,
2013-10-08 09:46:00,70.8,58.9,30.10,NNE,23,6.0,8.0,66,0.00,,---,0.00,VWS V14.01,2013-10-08 14:46:00,
2013-10-08 09:51:00,70.9,59.4,30.10,NNE,21,6.0,8.0,67,0.00,,---,0.00,VWS V14.01,2013-10-08 14:51:00,
2013-10-08 09:56:00,71.1,58.8,30.10,NNE,33,6.0,8.0,65,0.00,,---,0.00,VWS V14.01,2013-10-08 14:56:00,
2013-10-08 10:01:00,71.3,59.4,30.10,NNE,21,6.0,6.0,66,0.00,,---,0.00,VWS V14.01,2013-10-08 15:01:00,
2013-10-08 10:06:00,71.6,59.2,30.10,NNE,16,6.0,6.0,65,0.00,,---,0.00,VWS V14.01,2013-10-08 15:06:00,
2013-10-08 10:11:00,71.7,58.0,30.10,North,11,7.0,9.0,62,0.00,,---,0.00,VWS V14.01,2013-10-08 15:11:00,
2013-10-08 10:16:00,71.8,58.1,30.10,NNW,348,3.0,9.0,62,0.00,,---,0.00,VWS V14.01,2013-10-08 15:16:00,
2013-10-08 10:21:00,72.0,57.8,30.10,NNE,23,2.0,9.0,61,0.00,,---,0.00,VWS V14.01,2013-10-08 15:21:00,
2013-10-08 10:25:00,72.5,57.4,30.10,NE,37,3.0,9.0,59,0.00,,---,0.00,VWS V14.01,2013-10-08 15:25:00,
2013-10-08 10:30:00,72.7,58.0,30.11,NNE,33,2.0,9.0,60,0.00,,---,0.00,VWS V14.01,2013-10-08 15:30:00,
2013-10-08 10:35:00,72.9,57.8,30.11,NNW,330,1.0,9.0,59,0.00,,---,0.00,VWS V14.01,2013-10-08 15:35:00,
2013-10-08 10:40:00,73.3,57.7,30.11,North,359,4.0,9.0,58,0.00,,---,0.00,VWS V14.01,2013-10-08 15:40:00,
2013-10-08 10:45:00,73.4,57.7,30.11,NE,46,0.0,9.0,58,0.00,,---,0.00,VWS V14.01,2013-10-08 15:45:00,
2013-10-08 10:50:00,73.6,58.4,30.11,NNE,30,4.0,9.0,59,0.00,,---,0.00,VWS V14.01,2013-10-08 15:50:00,
2013-10-08 10:55:00,73.7,57.0,30.11,NNE,32,1.0,9.0,56,0.00,,---,0.00,VWS V14.01,2013-10-08 15:55:00,
2013-10-08 11:00:00,73.7,58.0,30.11,NE,36,3.0,5.0,58,0.00,,---,0.00,VWS V14.01,2013-10-08 16:00:00,
2013-10-08 11:05:00,73.9,57.2,30.10,NNE,27,3.0,8.0,56,0.00,,---,0.00,VWS V14.01,2013-10-08 16:05:00,
2013-10-08 11:10:00,74.3,59.1,30.11,NE,34,1.0,8.0,59,0.00,,---,0.00,VWS V14.01,2013-10-08 16:10:00,
2013-10-08 11:15:00,74.5,57.3,30.11,NE,51,7.0,8.0,55,0.00,,---,0.00,VWS V14.01,2013-10-08 16:15:00,
2013-10-08 11:20:00,74.4,58.2,30.11,ENE,61,2.0,8.0,57,0.00,,---,0.00,VWS V14.01,2013-10-08 16:20:00,
2013-10-08 11:25:00,74.7,57.5,30.11,NE,35,7.0,8.0,55,0.00,,---,0.00,VWS V14.01,2013-10-08 16:25:00,
2013-10-08 11:30:00,74.7,58.0,30.10,North,354,2.0,8.0,56,0.00,,---,0.00,VWS V14.01,2013-10-08 16:30:00,
2013-10-08 11:35:00,74.9,58.7,30.10,NE,39,2.0,8.0,57,0.00,,---,0.00,VWS V14.01,2013-10-08 16:35:00,
2013-10-08 11:40:00,75.2,57.4,30.10,NNE,33,4.0,8.0,54,0.00,,---,0.00,VWS V14.01,2013-10-08 16:40:00,
2013-10-08 11:45:00,75.3,57.0,30.10,North,9,2.0,8.0,53,0.00,,---,0.00,VWS V14.01,2013-10-08 16:45:00,
2013-10-08 11:50:00,75.4,58.1,30.10,NNE,29,3.0,8.0,55,0.00,,---,0.00,VWS V14.01,2013-10-08 16:50:00,
2013-10-08 11:55:00,75.4,57.1,30.10,NNE,33,2.0,8.0,53,0.00,,---,0.00,VWS V14.01,2013-10-08 16:55:00,
2013-10-08 12:00:00,75.6,56.8,30.10,NNE,16,1.0,6.0,52,0.00,,---,0.00,VWS V14.01,2013-10-08 17:00:00,
2013-10-08 12:05:00,76.1,57.8,30.10,NNE,31,2.0,6.0,53,0.00,,---,0.00,VWS V14.01,2013-10-08 17:05:00,
2013-10-08 12:10:00,76.3,56.3,30.10,NW,307,1.0,6.0,50,0.00,,---,0.00,VWS V14.01,2013-10-08 17:10:00,
2013-10-08 12:15:00,76.8,56.8,30.09,NE,42,3.0,7.0,50,0.00,,---,0.00,VWS V14.01,2013-10-08 17:15:00,
2013-10-08 12:20:00,77.2,56.6,30.09,North,5,1.0,7.0,49,0.00,,---,0.00,VWS V14.01,2013-10-08 17:20:00,
2013-10-08 12:25:00,77.2,55.4,30.09,NE,53,3.0,7.0,47,0.00,,---,0.00,VWS V14.01,2013-10-08 17:25:00,
2013-10-08 12:30:00,77.2,54.8,30.09,NE,36,2.0,7.0,46,0.00,,---,0.00,VWS V14.01,2013-10-08 17:30:00,
2013-10-08 12:35:00,77.1,55.9,30.09,ENE,64,6.0,7.0,48,0.00,,---,0.00,VWS V14.01,2013-10-08 17:35:00,
2013-10-08 12:40:00,77.2,54.8,30.09,North,9,2.0,7.0,46,0.00,,---,0.00,VWS V14.01,2013-10-08 17:40:00,
2013-10-08 12:45:00,77.3,56.7,30.09,NNE,30,7.0,7.0,49,0.00,,---,0.00,VWS V14.01,2013-10-08 17:45:00,
2013-10-08 12:50:00,77.4,56.8,30.09,ENE,70,0.0,7.0,49,0.00,,---,0.00,VWS V14.01,2013-10-08 17:50:00,
2013-10-08 12:55:00,77.6,57.5,30.09,NE,55,2.0,8.0,50,0.00,,---,0.00,VWS V14.01,2013-10-08 17:55:00,
2013-10-08 13:00:00,77.5,55.1,30.08,ENE,58,5.0,8.0,46,0.00,,---,0.00,VWS V14.01,2013-10-08 18:00:00,
2013-10-08 13:05:00,77.4,56.2,30.08,NE,46,0.0,7.0,48,0.00,,---,0.00,VWS V14.01,2013-10-08 18:05:00,
2013-10-08 13:10:00,77.5,55.1,30.08,ESE,118,1.0,7.0,46,0.00,,---,0.00,VWS V14.01,2013-10-08 18:10:00,
2013-10-08 13:15:00,77.6,55.8,30.08,East,92,3.0,7.0,47,0.00,,---,0.00,VWS V14.01,2013-10-08 18:15:00,
2013-10-08 13:20:00,77.8,57.1,30.07,ENE,62,5.0,7.0,49,0.00,,---,0.00,VWS V14.01,2013-10-08 18:20:00,
2013-10-08 13:25:00,77.5,55.7,30.07,East,81,0.0,7.0,47,0.00,,---,0.00,VWS V14.01,2013-10-08 18:25:00,
2013-10-08 13:30:00,77.9,56.1,30.07,NE,55,5.0,7.0,47,0.00,,---,0.00,VWS V14.01,2013-10-08 18:30:00,
2013-10-08 13:35:00,77.9,56.7,30.07,East,82,5.0,7.0,48,0.00,,---,0.00,VWS V14.01,2013-10-08 18:35:00,
2013-10-08 13:40:00,78.2,57.5,30.07,ENE,58,5.0,7.0,49,0.00,,---,0.00,VWS V14.01,2013-10-08 18:40:00,
2013-10-08 13:45:00,78.0,57.3,30.06,ESE,110,5.0,7.0,49,0.00,,---,0.00,VWS V14.01,2013-10-08 18:45:00,
2013-10-08 13:50:00,78.1,57.4,30.06,ESE,107,1.0,7.0,49,0.00,,---,0.00,VWS V14.01,2013-10-08 18:50:00,
2013-10-08 13:55:00,78.0,57.9,30.06,ESE,105,4.0,7.0,50,0.00,,---,0.00,VWS V14.01,2013-10-08 18:55:00,
2013-10-08 14:00:00,78.1,58.0,30.06,ENE,58,1.0,7.0,50,0.00,,---,0.00,VWS V14.01,2013-10-08 19:00:00,
2013-10-08 14:05:00,78.1,58.0,30.06,East,94,2.0,5.0,50,0.00,,---,0.00,VWS V14.01,2013-10-08 19:05:00,
2013-10-08 14:10:00,78.0,56.7,30.06,ENE,75,3.0,7.0,48,0.00,,---,0.00,VWS V14.01,2013-10-08 19:10:00,
2013-10-08 14:15:00,77.9,57.8,30.05,ENE,57,3.0,7.0,50,0.00,,---,0.00,VWS V14.01,2013-10-08 19:15:00,
2013-10-08 14:20:00,77.8,57.1,30.05,ENE,70,0.0,8.0,49,0.00,,---,0.00,VWS V14.01,2013-10-08 19:20:00,
2013-10-08 14:25:00,78.1,57.4,30.05,ESE,111,4.0,8.0,49,0.00,,---,0.00,VWS V14.01,2013-10-08 19:25:00,
2013-10-08 14:30:00,78.4,58.8,30.05,ENE,60,4.0,8.0,51,0.00,,---,0.00,VWS V14.01,2013-10-08 19:30:00,
2013-10-08 14:35:00,78.4,58.2,30.05,ENE,72,3.0,8.0,50,0.00,,---,0.00,VWS V14.01,2013-10-08 19:35:00,
2013-10-08 14:40:00,78.5,58.3,30.05,ENE,70,5.0,8.0,50,0.00,,---,0.00,VWS V14.01,2013-10-08 19:40:00,
2013-10-08 14:45:00,78.5,57.8,30.04,ENE,66,5.0,8.0,49,0.00,,---,0.00,VWS V14.01,2013-10-08 19:45:00,
2013-10-08 14:50:00,78.5,59.4,30.04,East,85,0.0,8.0,52,0.00,,---,0.00,VWS V14.01,2013-10-08 19:50:00,
2013-10-08 14:55:00,78.7,58.5,30.04,ESE,106,2.0,8.0,50,0.00,,---,0.00,VWS V14.01,2013-10-08 19:55:00,
2013-10-08 15:00:00,78.5,58.9,30.04,East,85,2.0,8.0,51,0.00,,---,0.00,VWS V14.01,2013-10-08 20:00:00,
2013-10-08 15:05:00,78.4,58.8,30.03,ENE,64,4.0,6.0,51,0.00,,---,0.00,VWS V14.01,2013-10-08 20:05:00,
2013-10-08 15:10:00,78.5,58.9,30.03,East,96,3.0,6.0,51,0.00,,---,0.00,VWS V14.01,2013-10-08 20:10:00,
2013-10-08 15:15:00,78.5,58.3,30.03,East,87,0.0,8.0,50,0.00,,---,0.00,VWS V14.01,2013-10-08 20:15:00,
2013-10-08 15:20:00,78.8,59.7,30.03,ESE,118,4.0,8.0,52,0.00,,---,0.00,VWS V14.01,2013-10-08 20:20:00,
2013-10-08 15:25:00,78.8,59.7,30.03,ENE,57,2.0,8.0,52,0.00,,---,0.00,VWS V14.01,2013-10-08 20:25:00,
2013-10-08 15:30:00,79.2,60.6,30.03,SE,136,3.0,8.0,53,0.00,,---,0.00,VWS V14.01,2013-10-08 20:30:00,
2013-10-08 15:35:00,78.9,59.2,30.03,East,98,7.0,9.0,51,0.00,,---,0.00,VWS V14.01,2013-10-08 20:35:00,
2013-10-08 15:40:00,78.7,58.5,30.03,East,79,2.0,9.0,50,0.00,,---,0.00,VWS V14.01,2013-10-08 20:40:00,
2013-10-08 15:45:00,78.6,58.4,30.02,ENE,65,5.0,9.0,50,0.00,,---,0.00,VWS V14.01,2013-10-08 20:45:00,
2013-10-08 15:50:00,78.7,59.6,30.02,East,100,6.0,9.0,52,0.00,,---,0.00,VWS V14.01,2013-10-08 20:50:00,
2013-10-08 15:55:00,78.5,60.0,30.02,NNE,31,5.0,9.0,53,0.00,,---,0.00,VWS V14.01,2013-10-08 20:55:00,
2013-10-08 16:00:00,78.6,59.5,30.02,ESE,118,3.0,9.0,52,0.00,,---,0.00,VWS V14.01,2013-10-08 21:00:00,
2013-10-08 16:05:00,78.7,59.1,30.03,SE,139,2.0,7.0,51,0.00,,---,0.00,VWS V14.01,2013-10-08 21:05:00,
2013-10-08 16:10:00,78.6,60.1,30.03,East,91,6.0,7.0,53,0.00,,---,0.00,VWS V14.01,2013-10-08 21:10:00,
2013-10-08 16:15:00,78.6,60.1,30.03,ESE,110,0.0,7.0,53,0.00,,---,0.00,VWS V14.01,2013-10-08 21:15:00,
2013-10-08 16:20:00,78.7,60.2,30.02,East,98,4.0,7.0,53,0.00,,---,0.00,VWS V14.01,2013-10-08 21:20:00,
2013-10-08 16:25:00,78.4,60.4,30.03,SSE,165,1.0,8.0,54,0.00,,---,0.00,VWS V14.01,2013-10-08 21:25:00,
2013-10-08 16:30:00,78.6,60.6,30.03,ENE,68,5.0,8.0,54,0.00,,---,0.00,VWS V14.01,2013-10-08 21:30:00,
2013-10-08 16:35:00,78.3,59.8,30.02,East,94,4.0,8.0,53,0.00,,---,0.00,VWS V14.01,2013-10-08 21:35:00,
2013-10-08 16:40:00,78.2,60.2,30.02,ESE,112,2.0,8.0,54,0.00,,---,0.00,VWS V14.01,2013-10-08 21:40:00,
2013-10-08 16:45:00,78.4,60.9,30.02,ESE,118,7.0,8.0,55,0.00,,---,0.00,VWS V14.01,2013-10-08 21:45:00,
2013-10-08 16:50:00,78.4,60.4,30.02,East,84,1.0,8.0,54,0.00,,---,0.00,VWS V14.01,2013-10-08 21:50:00,
2013-10-08 16:55:00,78.3,60.3,30.02,ENE,63,3.0,8.0,54,0.00,,---,0.00,VWS V14.01,2013-10-08 21:55:00,
2013-10-08 17:00:00,78.4,61.4,30.02,East,82,4.0,8.0,56,0.00,,---,0.00,VWS V14.01,2013-10-08 22:00:00,
2013-10-08 17:05:00,78.4,61.4,30.02,ESE,122,1.0,6.0,56,0.00,,---,0.00,VWS V14.01,2013-10-08 22:05:00,
2013-10-08 17:10:00,78.2,60.7,30.02,ESE,110,3.0,8.0,55,0.00,,---,0.00,VWS V14.01,2013-10-08 22:10:00,
2013-10-08 17:15:00,78.4,61.4,30.02,East,86,1.0,8.0,56,0.00,,---,0.00,VWS V14.01,2013-10-08 22:15:00,
2013-10-08 17:20:00,78.4,62.4,30.01,SE,141,3.0,8.0,58,0.00,,---,0.00,VWS V14.01,2013-10-08 22:20:00,
2013-10-08 17:25:00,78.4,61.4,30.01,ESE,113,3.0,8.0,56,0.00,,---,0.00,VWS V14.01,2013-10-08 22:25:00,
2013-10-08 17:30:00,78.4,62.9,30.01,South,183,2.0,8.0,59,0.00,,---,0.00,VWS V14.01,2013-10-08 22:30:00,
2013-10-08 17:35:00,78.6,62.6,30.01,SSE,150,0.0,8.0,58,0.00,,---,0.00,VWS V14.01,2013-10-08 22:35:00,
2013-10-08 17:40:00,78.6,62.1,30.01,SSE,148,2.0,8.0,57,0.00,,---,0.00,VWS V14.01,2013-10-08 22:40:00,
2013-10-08 17:45:00,78.5,62.0,30.01,SE,134,3.0,8.0,57,0.00,,---,0.00,VWS V14.01,2013-10-08 22:45:00,
2013-10-08 17:50:00,78.3,60.8,30.01,SE,139,4.0,8.0,55,0.00,,---,0.00,VWS V14.01,2013-10-08 22:50:00,
2013-10-08 17:55:00,78.2,61.7,30.01,SSE,149,0.0,8.0,57,0.00,,---,0.00,VWS V14.01,2013-10-08 22:55:00,
2013-10-08 18:00:00,78.1,62.1,30.02,SSE,159,4.0,8.0,58,0.00,,---,0.00,VWS V14.01,2013-10-08 23:00:00,
2013-10-08 18:05:00,77.9,62.0,30.01,South,184,4.0,5.0,58,0.00,,---,0.00,VWS V14.01,2013-10-08 23:05:00,
2013-10-08 18:10:00,77.7,61.3,30.01,SSE,156,3.0,5.0,57,0.00,,---,0.00,VWS V14.01,2013-10-08 23:10:00,
2013-10-08 18:15:00,77.5,62.1,30.01,SE,132,2.0,5.0,59,0.00,,---,0.00,VWS V14.01,2013-10-08 23:15:00,
2013-10-08 18:20:00,77.3,61.9,30.01,SE,141,4.0,5.0,59,0.00,,---,0.00,VWS V14.01,2013-10-08 23:20:00,
2013-10-08 18:25:00,77.1,62.2,30.01,SE,125,0.0,5.0,60,0.00,,---,0.00,VWS V14.01,2013-10-08 23:25:00,
2013-10-08 18:30:00,77.0,62.5,30.01,SE,129,0.0,5.0,61,0.00,,---,0.00,VWS V14.01,2013-10-08 23:30:00,
2013-10-08 18:35:00,76.9,62.4,30.01,ENE,78,0.0,5.0,61,0.00,,---,0.00,VWS V14.01,2013-10-08 23:35:00,
2013-10-08 18:40:00,76.7,62.7,30.01,SE,124,1.0,5.0,62,0.00,,---,0.00,VWS V14.01,2013-10-08 23:40:00,
2013-10-08 18:45:00,76.5,63.0,30.01,SE,141,0.0,5.0,63,0.00,,---,0.00,VWS V14.01,2013-10-08 23:45:00,
2013-10-08 18:50:00,76.3,62.8,30.01,SE,131,0.0,5.0,63,0.00,,---,0.00,VWS V14.01,2013-10-08 23:50:00,
2013-10-08 18:55:00,75.9,62.9,30.01,ESE,103,1.0,5.0,64,0.00,,---,0.00,VWS V14.01,2013-10-08 23:55:00,
2013-10-08 19:00:00,75.4,63.3,30.01,ESE,106,1.0,5.0,66,0.00,,---,0.00,VWS V14.01,2013-10-09 00:00:00,
2013-10-08 19:05:00,75.1,62.5,30.01,SE,134,0.0,3.0,65,0.00,,---,0.00,VWS V14.01,2013-10-09 00:05:00,
2013-10-08 19:10:00,74.9,63.2,30.02,SE,129,1.0,3.0,67,0.00,,---,0.00,VWS V14.01,2013-10-09 00:10:00,
2013-10-08 19:15:00,74.7,63.5,30.02,SE,127,0.0,3.0,68,0.00,,---,0.00,VWS V14.01,2013-10-09 00:15:00,
2013-10-08 19:20:00,74.5,63.3,30.02,SSE,148,0.0,3.0,68,0.00,,---,0.00,VWS V14.01,2013-10-09 00:20:00,
2013-10-08 19:25:00,74.4,63.6,30.02,SE,134,0.0,3.0,69,0.00,,---,0.00,VWS V14.01,2013-10-09 00:25:00,
2013-10-08 19:30:00,74.1,63.7,30.02,SE,129,0.0,3.0,70,0.00,,---,0.00,VWS V14.01,2013-10-09 00:30:00,
2013-10-08 19:35:00,74.1,63.7,30.02,SE,141,0.0,3.0,70,0.00,,---,0.00,VWS V14.01,2013-10-09 00:35:00,
2013-10-08 19:40:00,74.1,63.7,30.02,SE,138,0.0,3.0,70,0.00,,---,0.00,VWS V14.01,2013-10-09 00:40:00,
2013-10-08 19:45:00,74.0,63.6,30.02,ESE,118,0.0,3.0,70,0.00,,---,0.00,VWS V14.01,2013-10-09 00:45:00,
2013-10-08 19:50:00,73.9,63.5,30.02,SSE,148,0.0,3.0,70,0.00,,---,0.00,VWS V14.01,2013-10-09 00:50:00,
2013-10-08 19:55:00,73.8,63.8,30.02,SE,145,0.0,3.0,71,0.00,,---,0.00,VWS V14.01,2013-10-09 00:55:00,
2013-10-08 20:00:00,73.8,64.2,30.02,SE,124,1.0,3.0,72,0.00,,---,0.00,VWS V14.01,2013-10-09 01:00:00,
2013-10-08 20:05:00,73.8,64.2,30.02,SE,139,0.0,2.0,72,0.00,,---,0.00,VWS V14.01,2013-10-09 01:05:00,
2013-10-08 20:10:00,73.8,64.2,30.02,SE,142,0.0,2.0,72,0.00,,---,0.00,VWS V14.01,2013-10-09 01:10:00,
2013-10-08 20:15:00,73.7,63.7,30.02,SSE,162,0.0,2.0,71,0.00,,---,0.00,VWS V14.01,2013-10-09 01:15:00,
2013-10-08 20:20:00,73.7,64.1,30.02,SE,136,0.0,2.0,72,0.00,,---,0.00,VWS V14.01,2013-10-09 01:20:00,
2013-10-08 20:25:00,73.8,64.6,30.02,ESE,109,0.0,2.0,73,0.00,,---,0.00,VWS V14.01,2013-10-09 01:25:00,
2013-10-08 20:30:00,73.7,64.5,30.02,ESE,118,0.0,2.0,73,0.00,,---,0.00,VWS V14.01,2013-10-09 01:30:00,
2013-10-08 20:35:00,73.6,64.4,30.02,SE,129,0.0,2.0,73,0.00,,---,0.00,VWS V14.01,2013-10-09 01:35:00,
2013-10-08 20:40:00,73.5,64.3,30.02,ESE,120,0.0,2.0,73,0.00,,---,0.00,VWS V14.01,2013-10-09 01:40:00,
2013-10-08 20:45:00,73.4,63.8,30.02,ESE,118,0.0,2.0,72,0.00,,---,0.00,VWS V14.01,2013-10-09 01:45:00,
2013-10-08 20:50:00,73.3,63.7,30.02,SE,145,0.0,2.0,72,0.00,,---,0.00,VWS V14.01,2013-10-09 01:50:00,
2013-10-08 20:55:00,73.3,63.7,30.02,SE,130,0.0,2.0,72,0.00,,---,0.00,VWS V14.01,2013-10-09 01:55:00,
2013-10-08 21:00:00,73.3,63.7,30.02,SE,124,0.0,2.0,72,0.00,,---,0.00,VWS V14.01,2013-10-09 02:00:00,
2013-10-08 21:05:00,73.3,63.7,30.02,SE,125,0.0,0.0,72,0.00,,---,0.00,VWS V14.01,2013-10-09 02:05:00,
2013-10-08 21:10:00,73.3,63.3,30.02,SE,127,0.0,0.0,71,0.00,,---,0.00,VWS V14.01,2013-10-09 02:10:00,
2013-10-08 21:15:00,73.1,63.2,30.02,SE,125,0.0,0.0,71,0.00,,---,0.00,VWS V14.01,2013-10-09 02:15:00,
2013-10-08 21:20:00,73.0,63.0,30.02,ESE,114,0.0,0.0,71,0.00,,---,0.00,VWS V14.01,2013-10-09 02:20:00,
2013-10-08 21:25:00,72.9,63.0,30.02,ESE,116,0.0,0.0,71,0.00,,---,0.00,VWS V14.01,2013-10-09 02:25:00,
2013-10-08 21:30:00,72.7,63.2,30.02,ESE,115,0.0,0.0,72,0.00,,---,0.00,VWS V14.01,2013-10-09 02:30:00,
2013-10-08 21:35:00,72.6,63.1,30.02,ESE,118,0.0,0.0,72,0.00,,---,0.00,VWS V14.01,2013-10-09 02:35:00,
2013-10-08 21:40:00,72.4,63.3,30.02,ESE,118,0.0,0.0,73,0.00,,---,0.00,VWS V14.01,2013-10-09 02:40:00,
2013-10-08 21:45:00,72.2,63.5,30.03,ESE,118,0.0,0.0,74,0.00,,---,0.00,VWS V14.01,2013-10-09 02:45:00,
2013-10-08 21:50:00,72.1,63.4,30.03,ESE,120,0.0,0.0,74,0.00,,---,0.00,VWS V14.01,2013-10-09 02:50:00,
2013-10-08 21:55:00,72.2,63.8,30.03,ESE,120,0.0,0.0,75,0.00,,---,0.00,VWS V14.01,2013-10-09 02:55:00,
2013-10-08 22:00:00,72.1,63.4,30.03,SE,127,0.0,0.0,74,0.00,,---,0.00,VWS V14.01,2013-10-09 03:00:00,
2013-10-08 22:05:00,72.2,63.1,30.03,SE,127,0.0,0.0,73,0.00,,---,0.00,VWS V14.01,2013-10-09 03:05:00,
2013-10-08 22:10:00,72.2,63.5,30.03,SE,129,0.0,0.0,74,0.00,,---,0.00,VWS V14.01,2013-10-09 03:10:00,
2013-10-08 22:15:00,72.2,63.8,30.03,SE,129,0.0,0.0,75,0.00,,---,0.00,VWS V14.01,2013-10-09 03:15:00,
2013-10-08 22:20:00,72.2,63.8,30.03,SE,131,0.0,0.0,75,0.00,,---,0.00,VWS V14.01,2013-10-09 03:20:00,
2013-10-08 22:25:00,72.0,63.3,30.03,SE,131,0.0,0.0,74,0.00,,---,0.00,VWS V14.01,2013-10-09 03:25:00,
2013-10-08 22:30:00,71.9,62.8,30.03,SE,142,0.0,0.0,73,0.00,,---,0.00,VWS V14.01,2013-10-09 03:30:00,
2013-10-08 22:35:00,72.0,62.9,30.03,SE,139,0.0,0.0,73,0.00,,---,0.00,VWS V14.01,2013-10-09 03:35:00,
2013-10-08 22:40:00,72.3,63.2,30.03,SE,138,0.0,0.0,73,0.00,,---,0.00,VWS V14.01,2013-10-09 03:40:00,
2013-10-08 22:45:00,72.3,63.2,30.03,SE,141,0.0,0.0,73,0.00,,---,0.00,VWS V14.01,2013-10-09 03:45:00,
2013-10-08 22:50:00,72.5,63.0,30.03,SE,129,0.0,0.0,72,0.00,,---,0.00,VWS V14.01,2013-10-09 03:50:00,
2013-10-08 22:55:00,72.6,62.7,30.03,ESE,120,0.0,0.0,71,0.00,,---,0.00,VWS V14.01,2013-10-09 03:55:00,
2013-10-08 23:00:00,72.4,62.5,30.02,ESE,115,0.0,0.0,71,0.00,,---,0.00,VWS V14.01,2013-10-09 04:00:00,
2013-10-08 23:01:00,72.4,62.5,30.02,ESE,108,0.0,0.0,71,0.00,,---,0.00,VWS V14.01,2013-10-09 04:01:00,
2013-10-08 23:06:00,72.3,62.0,30.02,ESE,103,0.0,0.0,70,0.00,,---,0.00,VWS V14.01,2013-10-09 04:06:00,
2013-10-08 23:11:00,72.3,62.4,30.02,ESE,111,0.0,0.0,71,0.00,,---,0.00,VWS V14.01,2013-10-09 04:11:00,
2013-10-08 23:16:00,72.3,62.0,30.02,ESE,113,0.0,0.0,70,0.00,,---,0.00,VWS V14.01,2013-10-09 04:16:00,
2013-10-08 23:21:00,72.3,62.0,30.02,ESE,113,0.0,0.0,70,0.00,,---,0.00,VWS V14.01,2013-10-09 04:21:00,
2013-10-08 23:26:00,72.4,61.7,30.03,SE,125,0.0,1.0,69,0.00,,---,0.00,VWS V14.01,2013-10-09 04:26:00,
2013-10-08 23:31:00,72.7,61.1,30.02,ESE,105,0.0,3.0,67,0.00,,---,0.00,VWS V14.01,2013-10-09 04:31:00,
2013-10-08 23:36:00,72.8,61.6,30.03,ESE,123,0.0,3.0,68,0.00,,---,0.00,VWS V14.01,2013-10-09 04:36:00,
2013-10-08 23:41:00,73.0,61.4,30.02,ESE,120,1.0,3.0,67,0.00,,---,0.00,VWS V14.01,2013-10-09 04:41:00,
2013-10-08 23:46:00,73.2,61.2,30.02,ESE,115,0.0,3.0,66,0.00,,---,0.00,VWS V14.01,2013-10-09 04:46:00,
2013-10-08 23:51:00,73.3,61.7,30.02,East,88,0.0,3.0,67,0.00,,---,0.00,VWS V14.01,2013-10-09 04:51:00,
2013-10-08 23:56:00,73.3,61.7,30.02,ESE,105,3.0,3.0,67,0.00,,---,0.00,VWS V14.01,2013-10-09 04:56:00,